sensor_id;sensor_type;location;lat;lon;timestamp;P1;durP1;ratioP1;P2;durP2;ratioP2
22849;SDS011;11591;44.792;10.358;2022-12-01T00:00:35;48.78;;;20.00;;
22849;SDS011;11591;44.792;10.358;2022-12-01T00:03:00;50.10;;;20.90;;
22849;SDS011;11591;44.792;10.358;2022-12-01T00:05:26;45.25;;;18.90;;
22849;SDS011;11591;44.792;10.358;2022-12-01T00:07:52;50.60;;;20.27;;
22849;SDS011;11591;44.792;10.358;2022-12-01T00:10:18;45.97;;;20.33;;
22849;SDS011;11591;44.792;10.358;2022-12-01T00:12:49;46.25;;;20.42;;
22849;SDS011;11591;44.792;10.358;2022-12-01T00:15:25;47.63;;;19.55;;
22849;SDS011;11591;44.792;10.358;2022-12-01T00:17:52;45.75;;;20.27;;
22849;SDS011;11591;44.792;10.358;2022-12-01T00:20:18;46.72;;;20.45;;
22849;SDS011;11591;44.792;10.358;2022-12-01T00:22:44;47.35;;;20.02;;
22849;SDS011;11591;44.792;10.358;2022-12-01T00:25:11;47.58;;;20.73;;
22849;SDS011;11591;44.792;10.358;2022-12-01T00:27:38;44.85;;;20.65;;
22849;SDS011;11591;44.792;10.358;2022-12-01T00:30:05;45.67;;;19.70;;
22849;SDS011;11591;44.792;10.358;2022-12-01T00:32:33;44.65;;;19.02;;
22849;SDS011;11591;44.792;10.358;2022-12-01T00:34:59;43.83;;;19.50;;
22849;SDS011;11591;44.792;10.358;2022-12-01T00:37:25;45.30;;;19.58;;
22849;SDS011;11591;44.792;10.358;2022-12-01T00:39:53;46.13;;;19.88;;
22849;SDS011;11591;44.792;10.358;2022-12-01T00:42:18;48.13;;;19.65;;
22849;SDS011;11591;44.792;10.358;2022-12-01T00:44:45;43.53;;;19.00;;
22849;SDS011;11591;44.792;10.358;2022-12-01T00:47:11;43.72;;;18.90;;
22849;SDS011;11591;44.792;10.358;2022-12-01T00:49:37;45.00;;;19.27;;
22849;SDS011;11591;44.792;10.358;2022-12-01T00:52:03;40.28;;;18.58;;
22849;SDS011;11591;44.792;10.358;2022-12-01T00:54:30;42.95;;;18.40;;
22849;SDS011;11591;44.792;10.358;2022-12-01T00:56:56;47.47;;;18.98;;
22849;SDS011;11591;44.792;10.358;2022-12-01T00:59:23;40.85;;;18.52;;
22849;SDS011;11591;44.792;10.358;2022-12-01T01:01:49;46.47;;;19.98;;
22849;SDS011;11591;44.792;10.358;2022-12-01T01:04:16;43.92;;;19.48;;
22849;SDS011;11591;44.792;10.358;2022-12-01T01:06:43;40.97;;;18.70;;
22849;SDS011;11591;44.792;10.358;2022-12-01T01:09:09;46.08;;;19.60;;
22849;SDS011;11591;44.792;10.358;2022-12-01T01:11:35;44.25;;;19.23;;
22849;SDS011;11591;44.792;10.358;2022-12-01T01:14:01;43.30;;;18.13;;
22849;SDS011;11591;44.792;10.358;2022-12-01T01:16:28;44.53;;;18.85;;
22849;SDS011;11591;44.792;10.358;2022-12-01T01:18:54;54.10;;;20.38;;
22849;SDS011;11591;44.792;10.358;2022-12-01T01:21:22;44.95;;;18.67;;
22849;SDS011;11591;44.792;10.358;2022-12-01T01:23:48;45.25;;;18.58;;
22849;SDS011;11591;44.792;10.358;2022-12-01T01:28:47;45.83;;;19.92;;
22849;SDS011;11591;44.792;10.358;2022-12-01T01:31:14;47.15;;;19.75;;
22849;SDS011;11591;44.792;10.358;2022-12-01T01:33:44;45.53;;;18.58;;
22849;SDS011;11591;44.792;10.358;2022-12-01T01:36:11;46.88;;;19.70;;
22849;SDS011;11591;44.792;10.358;2022-12-01T01:38:37;41.72;;;18.27;;
22849;SDS011;11591;44.792;10.358;2022-12-01T01:41:04;44.08;;;19.50;;
22849;SDS011;11591;44.792;10.358;2022-12-01T01:46:18;47.95;;;20.52;;
22849;SDS011;11591;44.792;10.358;2022-12-01T01:54:03;49.15;;;21.75;;
22849;SDS011;11591;44.792;10.358;2022-12-01T01:56:32;50.47;;;22.52;;
22849;SDS011;11591;44.792;10.358;2022-12-01T01:59:00;47.20;;;21.10;;
22849;SDS011;11591;44.792;10.358;2022-12-01T02:01:28;48.83;;;21.58;;
22849;SDS011;11591;44.792;10.358;2022-12-01T02:03:55;47.45;;;21.25;;
22849;SDS011;11591;44.792;10.358;2022-12-01T02:06:21;50.97;;;22.15;;
22849;SDS011;11591;44.792;10.358;2022-12-01T02:08:48;48.17;;;21.80;;
22849;SDS011;11591;44.792;10.358;2022-12-01T02:14:18;51.40;;;22.42;;
22849;SDS011;11591;44.792;10.358;2022-12-01T02:17:25;49.80;;;22.70;;
22849;SDS011;11591;44.792;10.358;2022-12-01T02:26:09;49.50;;;21.20;;
22849;SDS011;11591;44.792;10.358;2022-12-01T02:34:24;46.20;;;21.63;;
22849;SDS011;11591;44.792;10.358;2022-12-01T02:36:53;54.60;;;22.38;;
22849;SDS011;11591;44.792;10.358;2022-12-01T02:42:08;50.35;;;22.08;;
22849;SDS011;11591;44.792;10.358;2022-12-01T02:45:19;50.35;;;21.08;;
22849;SDS011;11591;44.792;10.358;2022-12-01T02:48:10;50.78;;;21.60;;
22849;SDS011;11591;44.792;10.358;2022-12-01T02:50:39;49.50;;;21.40;;
22849;SDS011;11591;44.792;10.358;2022-12-01T02:53:06;54.33;;;22.02;;
22849;SDS011;11591;44.792;10.358;2022-12-01T02:55:34;50.88;;;21.15;;
22849;SDS011;11591;44.792;10.358;2022-12-01T02:58:00;49.70;;;21.05;;
22849;SDS011;11591;44.792;10.358;2022-12-01T03:00:26;51.28;;;21.60;;
22849;SDS011;11591;44.792;10.358;2022-12-01T03:06:02;50.65;;;21.23;;
22849;SDS011;11591;44.792;10.358;2022-12-01T03:11:10;52.72;;;20.77;;
22849;SDS011;11591;44.792;10.358;2022-12-01T03:18:57;51.42;;;21.63;;
22849;SDS011;11591;44.792;10.358;2022-12-01T03:21:31;48.25;;;21.65;;
22849;SDS011;11591;44.792;10.358;2022-12-01T03:24:14;51.55;;;22.10;;
22849;SDS011;11591;44.792;10.358;2022-12-01T03:26:46;49.60;;;20.92;;
22849;SDS011;11591;44.792;10.358;2022-12-01T03:29:19;52.38;;;22.48;;
22849;SDS011;11591;44.792;10.358;2022-12-01T03:31:56;51.03;;;21.48;;
22849;SDS011;11591;44.792;10.358;2022-12-01T03:34:28;56.00;;;23.77;;
22849;SDS011;11591;44.792;10.358;2022-12-01T03:37:02;57.60;;;23.92;;
22849;SDS011;11591;44.792;10.358;2022-12-01T03:39:31;49.55;;;22.67;;
22849;SDS011;11591;44.792;10.358;2022-12-01T03:42:04;55.35;;;23.42;;
22849;SDS011;11591;44.792;10.358;2022-12-01T03:44:41;60.17;;;24.75;;
22849;SDS011;11591;44.792;10.358;2022-12-01T03:47:24;52.80;;;22.88;;
22849;SDS011;11591;44.792;10.358;2022-12-01T03:49:55;51.25;;;22.05;;
22849;SDS011;11591;44.792;10.358;2022-12-01T04:00:17;54.42;;;22.92;;
22849;SDS011;11591;44.792;10.358;2022-12-01T04:02:44;54.38;;;22.95;;
22849;SDS011;11591;44.792;10.358;2022-12-01T04:05:10;54.92;;;22.10;;
22849;SDS011;11591;44.792;10.358;2022-12-01T04:07:36;49.90;;;22.45;;
22849;SDS011;11591;44.792;10.358;2022-12-01T04:10:03;48.83;;;22.17;;
22849;SDS011;11591;44.792;10.358;2022-12-01T04:12:31;53.33;;;22.92;;
22849;SDS011;11591;44.792;10.358;2022-12-01T04:15:04;50.00;;;22.00;;
22849;SDS011;11591;44.792;10.358;2022-12-01T04:17:32;50.35;;;22.15;;
22849;SDS011;11591;44.792;10.358;2022-12-01T04:19:58;50.15;;;22.90;;
22849;SDS011;11591;44.792;10.358;2022-12-01T04:22:24;56.90;;;23.88;;
22849;SDS011;11591;44.792;10.358;2022-12-01T04:24:50;52.47;;;22.73;;
22849;SDS011;11591;44.792;10.358;2022-12-01T04:27:16;51.50;;;22.05;;
22849;SDS011;11591;44.792;10.358;2022-12-01T04:29:42;48.60;;;22.00;;
22849;SDS011;11591;44.792;10.358;2022-12-01T04:32:08;50.40;;;21.35;;
22849;SDS011;11591;44.792;10.358;2022-12-01T04:34:34;53.88;;;22.30;;
22849;SDS011;11591;44.792;10.358;2022-12-01T04:37:00;56.83;;;23.25;;
22849;SDS011;11591;44.792;10.358;2022-12-01T04:39:26;54.28;;;23.65;;
22849;SDS011;11591;44.792;10.358;2022-12-01T04:41:51;51.13;;;22.88;;
22849;SDS011;11591;44.792;10.358;2022-12-01T04:44:17;55.80;;;23.27;;
22849;SDS011;11591;44.792;10.358;2022-12-01T04:46:43;55.00;;;23.13;;
22849;SDS011;11591;44.792;10.358;2022-12-01T04:49:09;54.47;;;23.40;;
22849;SDS011;11591;44.792;10.358;2022-12-01T04:51:35;63.13;;;23.83;;
22849;SDS011;11591;44.792;10.358;2022-12-01T04:54:01;54.92;;;23.20;;
22849;SDS011;11591;44.792;10.358;2022-12-01T04:56:27;53.97;;;22.85;;
22849;SDS011;11591;44.792;10.358;2022-12-01T04:58:53;51.78;;;23.30;;
22849;SDS011;11591;44.792;10.358;2022-12-01T05:01:18;54.88;;;23.33;;
22849;SDS011;11591;44.792;10.358;2022-12-01T05:03:45;48.70;;;21.83;;
22849;SDS011;11591;44.792;10.358;2022-12-01T05:06:20;56.08;;;23.40;;
22849;SDS011;11591;44.792;10.358;2022-12-01T05:08:52;54.42;;;22.42;;
22849;SDS011;11591;44.792;10.358;2022-12-01T05:11:19;55.58;;;22.63;;
22849;SDS011;11591;44.792;10.358;2022-12-01T05:13:46;52.80;;;22.77;;
22849;SDS011;11591;44.792;10.358;2022-12-01T05:16:17;48.90;;;22.42;;
22849;SDS011;11591;44.792;10.358;2022-12-01T05:18:51;59.17;;;22.90;;
22849;SDS011;11591;44.792;10.358;2022-12-01T05:21:41;58.75;;;22.27;;
22849;SDS011;11591;44.792;10.358;2022-12-01T05:24:08;54.65;;;23.40;;
22849;SDS011;11591;44.792;10.358;2022-12-01T05:26:35;57.15;;;22.65;;
22849;SDS011;11591;44.792;10.358;2022-12-01T05:29:01;53.88;;;22.25;;
22849;SDS011;11591;44.792;10.358;2022-12-01T05:31:27;54.00;;;22.67;;
22849;SDS011;11591;44.792;10.358;2022-12-01T05:33:53;53.17;;;22.65;;
22849;SDS011;11591;44.792;10.358;2022-12-01T05:36:19;58.67;;;22.40;;
22849;SDS011;11591;44.792;10.358;2022-12-01T05:38:44;51.60;;;22.15;;
22849;SDS011;11591;44.792;10.358;2022-12-01T05:41:10;56.22;;;22.65;;
22849;SDS011;11591;44.792;10.358;2022-12-01T05:43:36;51.50;;;21.20;;
22849;SDS011;11591;44.792;10.358;2022-12-01T05:46:02;52.80;;;23.45;;
22849;SDS011;11591;44.792;10.358;2022-12-01T05:48:27;50.78;;;22.38;;
22849;SDS011;11591;44.792;10.358;2022-12-01T05:50:53;49.88;;;21.58;;
22849;SDS011;11591;44.792;10.358;2022-12-01T05:53:19;54.83;;;22.27;;
22849;SDS011;11591;44.792;10.358;2022-12-01T05:55:45;49.05;;;21.60;;
22849;SDS011;11591;44.792;10.358;2022-12-01T05:58:11;50.13;;;22.00;;
22849;SDS011;11591;44.792;10.358;2022-12-01T06:00:37;54.15;;;22.50;;
22849;SDS011;11591;44.792;10.358;2022-12-01T06:03:21;53.38;;;23.88;;
22849;SDS011;11591;44.792;10.358;2022-12-01T06:05:47;48.70;;;21.77;;
22849;SDS011;11591;44.792;10.358;2022-12-01T06:08:13;55.17;;;23.10;;
22849;SDS011;11591;44.792;10.358;2022-12-01T06:10:39;45.20;;;21.65;;
22849;SDS011;11591;44.792;10.358;2022-12-01T06:13:05;57.53;;;22.90;;
22849;SDS011;11591;44.792;10.358;2022-12-01T06:15:31;52.25;;;22.92;;
22849;SDS011;11591;44.792;10.358;2022-12-01T06:17:59;46.25;;;22.05;;
22849;SDS011;11591;44.792;10.358;2022-12-01T06:20:25;49.38;;;22.80;;
22849;SDS011;11591;44.792;10.358;2022-12-01T06:22:51;54.08;;;23.05;;
22849;SDS011;11591;44.792;10.358;2022-12-01T06:25:17;50.28;;;22.73;;
22849;SDS011;11591;44.792;10.358;2022-12-01T06:27:42;54.30;;;24.02;;
22849;SDS011;11591;44.792;10.358;2022-12-01T06:30:08;56.58;;;24.00;;
22849;SDS011;11591;44.792;10.358;2022-12-01T06:32:34;54.58;;;23.60;;
22849;SDS011;11591;44.792;10.358;2022-12-01T06:35:00;55.47;;;24.83;;
22849;SDS011;11591;44.792;10.358;2022-12-01T06:37:27;52.90;;;23.95;;
22849;SDS011;11591;44.792;10.358;2022-12-01T06:39:52;59.42;;;25.05;;
22849;SDS011;11591;44.792;10.358;2022-12-01T06:42:18;55.38;;;23.98;;
22849;SDS011;11591;44.792;10.358;2022-12-01T06:44:44;54.30;;;24.50;;
22849;SDS011;11591;44.792;10.358;2022-12-01T06:47:10;54.83;;;24.30;;
22849;SDS011;11591;44.792;10.358;2022-12-01T06:49:36;58.47;;;25.67;;
22849;SDS011;11591;44.792;10.358;2022-12-01T06:52:02;58.35;;;25.90;;
22849;SDS011;11591;44.792;10.358;2022-12-01T06:54:29;52.80;;;24.85;;
22849;SDS011;11591;44.792;10.358;2022-12-01T06:56:54;59.38;;;25.17;;
22849;SDS011;11591;44.792;10.358;2022-12-01T06:59:20;58.85;;;25.70;;
22849;SDS011;11591;44.792;10.358;2022-12-01T07:01:46;57.10;;;25.95;;
22849;SDS011;11591;44.792;10.358;2022-12-01T07:04:12;57.30;;;25.50;;
22849;SDS011;11591;44.792;10.358;2022-12-01T07:06:38;56.40;;;25.30;;
22849;SDS011;11591;44.792;10.358;2022-12-01T07:09:03;61.90;;;25.80;;
22849;SDS011;11591;44.792;10.358;2022-12-01T07:11:29;53.22;;;24.48;;
22849;SDS011;11591;44.792;10.358;2022-12-01T07:13:56;58.72;;;25.60;;
22849;SDS011;11591;44.792;10.358;2022-12-01T07:16:22;55.40;;;25.42;;
22849;SDS011;11591;44.792;10.358;2022-12-01T07:18:48;55.40;;;24.95;;
22849;SDS011;11591;44.792;10.358;2022-12-01T07:21:14;55.00;;;25.10;;
22849;SDS011;11591;44.792;10.358;2022-12-01T07:23:41;56.00;;;25.63;;
22849;SDS011;11591;44.792;10.358;2022-12-01T07:26:14;55.05;;;25.13;;
22849;SDS011;11591;44.792;10.358;2022-12-01T07:28:41;60.17;;;26.60;;
22849;SDS011;11591;44.792;10.358;2022-12-01T07:31:11;56.65;;;25.42;;
22849;SDS011;11591;44.792;10.358;2022-12-01T07:33:39;55.20;;;25.70;;
22849;SDS011;11591;44.792;10.358;2022-12-01T07:36:05;57.63;;;24.85;;
22849;SDS011;11591;44.792;10.358;2022-12-01T07:38:31;63.38;;;26.83;;
22849;SDS011;11591;44.792;10.358;2022-12-01T07:41:02;67.63;;;28.17;;
22849;SDS011;11591;44.792;10.358;2022-12-01T07:43:30;67.82;;;30.15;;
22849;SDS011;11591;44.792;10.358;2022-12-01T07:45:56;64.40;;;28.92;;
22849;SDS011;11591;44.792;10.358;2022-12-01T07:48:30;64.03;;;26.50;;
22849;SDS011;11591;44.792;10.358;2022-12-01T07:50:56;62.08;;;26.45;;
22849;SDS011;11591;44.792;10.358;2022-12-01T07:53:22;60.78;;;25.58;;
22849;SDS011;11591;44.792;10.358;2022-12-01T07:55:48;60.15;;;26.67;;
22849;SDS011;11591;44.792;10.358;2022-12-01T07:58:14;59.40;;;26.88;;
22849;SDS011;11591;44.792;10.358;2022-12-01T08:00:41;62.00;;;27.17;;
22849;SDS011;11591;44.792;10.358;2022-12-01T08:03:07;63.75;;;27.42;;
22849;SDS011;11591;44.792;10.358;2022-12-01T08:05:32;58.83;;;25.13;;
22849;SDS011;11591;44.792;10.358;2022-12-01T08:07:58;72.45;;;27.27;;
22849;SDS011;11591;44.792;10.358;2022-12-01T08:10:24;64.90;;;27.00;;
22849;SDS011;11591;44.792;10.358;2022-12-01T08:12:50;62.45;;;26.42;;
22849;SDS011;11591;44.792;10.358;2022-12-01T08:15:15;61.00;;;25.98;;
22849;SDS011;11591;44.792;10.358;2022-12-01T08:17:41;62.25;;;27.88;;
22849;SDS011;11591;44.792;10.358;2022-12-01T08:20:07;62.85;;;27.50;;
22849;SDS011;11591;44.792;10.358;2022-12-01T08:22:33;68.30;;;28.10;;
22849;SDS011;11591;44.792;10.358;2022-12-01T08:24:59;80.15;;;32.95;;
22849;SDS011;11591;44.792;10.358;2022-12-01T08:27:25;60.83;;;27.33;;
22849;SDS011;11591;44.792;10.358;2022-12-01T08:29:50;66.90;;;27.15;;
22849;SDS011;11591;44.792;10.358;2022-12-01T08:32:16;61.00;;;26.80;;
22849;SDS011;11591;44.792;10.358;2022-12-01T08:34:42;57.00;;;26.38;;
22849;SDS011;11591;44.792;10.358;2022-12-01T08:37:08;62.13;;;27.73;;
22849;SDS011;11591;44.792;10.358;2022-12-01T08:39:34;60.90;;;25.52;;
22849;SDS011;11591;44.792;10.358;2022-12-01T08:42:00;70.75;;;27.95;;
22849;SDS011;11591;44.792;10.358;2022-12-01T08:44:26;62.28;;;27.70;;
22849;SDS011;11591;44.792;10.358;2022-12-01T08:46:51;71.03;;;27.60;;
22849;SDS011;11591;44.792;10.358;2022-12-01T08:49:18;61.10;;;26.50;;
22849;SDS011;11591;44.792;10.358;2022-12-01T08:51:44;65.90;;;27.48;;
22849;SDS011;11591;44.792;10.358;2022-12-01T08:54:10;62.53;;;27.02;;
22849;SDS011;11591;44.792;10.358;2022-12-01T08:56:37;65.13;;;26.38;;
22849;SDS011;11591;44.792;10.358;2022-12-01T08:59:06;61.72;;;26.48;;
22849;SDS011;11591;44.792;10.358;2022-12-01T09:01:33;64.90;;;27.00;;
22849;SDS011;11591;44.792;10.358;2022-12-01T09:04:00;60.53;;;25.60;;
22849;SDS011;11591;44.792;10.358;2022-12-01T09:06:34;66.05;;;25.60;;
22849;SDS011;11591;44.792;10.358;2022-12-01T09:09:04;61.13;;;25.58;;
22849;SDS011;11591;44.792;10.358;2022-12-01T09:11:31;62.95;;;26.58;;
22849;SDS011;11591;44.792;10.358;2022-12-01T09:13:57;68.65;;;26.65;;
22849;SDS011;11591;44.792;10.358;2022-12-01T09:16:23;61.22;;;25.83;;
22849;SDS011;11591;44.792;10.358;2022-12-01T09:18:49;64.65;;;26.42;;
22849;SDS011;11591;44.792;10.358;2022-12-01T09:23:43;66.05;;;27.55;;
22849;SDS011;11591;44.792;10.358;2022-12-01T09:26:10;65.40;;;27.20;;
22849;SDS011;11591;44.792;10.358;2022-12-01T09:28:37;60.83;;;26.38;;
22849;SDS011;11591;44.792;10.358;2022-12-01T09:31:04;73.43;;;29.63;;
22849;SDS011;11591;44.792;10.358;2022-12-01T09:33:35;72.93;;;29.75;;
22849;SDS011;11591;44.792;10.358;2022-12-01T09:36:03;70.80;;;29.13;;
22849;SDS011;11591;44.792;10.358;2022-12-01T09:38:31;71.85;;;29.70;;
22849;SDS011;11591;44.792;10.358;2022-12-01T09:40:58;66.20;;;28.35;;
22849;SDS011;11591;44.792;10.358;2022-12-01T09:43:30;69.82;;;30.02;;
22849;SDS011;11591;44.792;10.358;2022-12-01T09:46:03;71.30;;;30.08;;
22849;SDS011;11591;44.792;10.358;2022-12-01T09:56:02;66.55;;;29.02;;
22849;SDS011;11591;44.792;10.358;2022-12-01T09:58:28;72.43;;;29.35;;
22849;SDS011;11591;44.792;10.358;2022-12-01T10:00:55;70.60;;;30.00;;
22849;SDS011;11591;44.792;10.358;2022-12-01T10:03:39;74.00;;;30.27;;
22849;SDS011;11591;44.792;10.358;2022-12-01T10:06:13;69.28;;;28.77;;
22849;SDS011;11591;44.792;10.358;2022-12-01T10:11:41;74.03;;;29.20;;
22849;SDS011;11591;44.792;10.358;2022-12-01T10:14:14;69.57;;;29.10;;
22849;SDS011;11591;44.792;10.358;2022-12-01T10:16:58;78.60;;;30.90;;
22849;SDS011;11591;44.792;10.358;2022-12-01T10:25:39;86.07;;;31.60;;
22849;SDS011;11591;44.792;10.358;2022-12-01T10:28:16;72.32;;;29.52;;
22849;SDS011;11591;44.792;10.358;2022-12-01T10:31:13;81.72;;;31.42;;
22849;SDS011;11591;44.792;10.358;2022-12-01T10:34:05;70.95;;;30.55;;
22849;SDS011;11591;44.792;10.358;2022-12-01T10:36:42;71.88;;;30.13;;
22849;SDS011;11591;44.792;10.358;2022-12-01T10:39:12;68.43;;;29.73;;
22849;SDS011;11591;44.792;10.358;2022-12-01T10:42:10;68.15;;;28.45;;
22849;SDS011;11591;44.792;10.358;2022-12-01T10:44:41;78.32;;;30.40;;
22849;SDS011;11591;44.792;10.358;2022-12-01T10:47:16;73.55;;;30.05;;
22849;SDS011;11591;44.792;10.358;2022-12-01T10:49:44;76.07;;;29.60;;
22849;SDS011;11591;44.792;10.358;2022-12-01T10:52:26;68.25;;;29.83;;
22849;SDS011;11591;44.792;10.358;2022-12-01T10:54:59;73.10;;;30.30;;
22849;SDS011;11591;44.792;10.358;2022-12-01T10:57:26;65.05;;;29.25;;
22849;SDS011;11591;44.792;10.358;2022-12-01T11:00:04;69.53;;;29.95;;
22849;SDS011;11591;44.792;10.358;2022-12-01T11:02:32;72.68;;;30.45;;
22849;SDS011;11591;44.792;10.358;2022-12-01T11:05:00;73.40;;;31.00;;
22849;SDS011;11591;44.792;10.358;2022-12-01T11:07:31;73.72;;;29.95;;
22849;SDS011;11591;44.792;10.358;2022-12-01T11:12:37;73.28;;;31.15;;
22849;SDS011;11591;44.792;10.358;2022-12-01T11:15:04;69.18;;;29.55;;
22849;SDS011;11591;44.792;10.358;2022-12-01T11:17:32;77.18;;;31.02;;
22849;SDS011;11591;44.792;10.358;2022-12-01T11:23:27;79.18;;;30.80;;
22849;SDS011;11591;44.792;10.358;2022-12-01T11:28:31;77.53;;;32.45;;
22849;SDS011;11591;44.792;10.358;2022-12-01T11:31:00;81.93;;;31.58;;
22849;SDS011;11591;44.792;10.358;2022-12-01T11:33:28;79.43;;;31.10;;
22849;SDS011;11591;44.792;10.358;2022-12-01T11:35:56;82.68;;;33.10;;
22849;SDS011;11591;44.792;10.358;2022-12-01T11:38:23;79.05;;;31.92;;
22849;SDS011;11591;44.792;10.358;2022-12-01T11:40:56;82.63;;;32.88;;
22849;SDS011;11591;44.792;10.358;2022-12-01T11:43:24;80.35;;;32.85;;
22849;SDS011;11591;44.792;10.358;2022-12-01T11:45:52;80.78;;;32.20;;
22849;SDS011;11591;44.792;10.358;2022-12-01T11:48:24;80.60;;;32.65;;
22849;SDS011;11591;44.792;10.358;2022-12-01T11:51:00;84.97;;;31.98;;
22849;SDS011;11591;44.792;10.358;2022-12-01T11:53:30;81.53;;;31.67;;
22849;SDS011;11591;44.792;10.358;2022-12-01T11:56:14;77.13;;;30.92;;
22849;SDS011;11591;44.792;10.358;2022-12-01T11:58:59;72.72;;;29.58;;
22849;SDS011;11591;44.792;10.358;2022-12-01T12:01:49;77.20;;;30.70;;
22849;SDS011;11591;44.792;10.358;2022-12-01T12:09:50;69.32;;;30.08;;
22849;SDS011;11591;44.792;10.358;2022-12-01T12:20:33;72.63;;;29.80;;
22849;SDS011;11591;44.792;10.358;2022-12-01T12:23:55;68.85;;;29.70;;
22849;SDS011;11591;44.792;10.358;2022-12-01T12:51:20;66.78;;;28.73;;
22849;SDS011;11591;44.792;10.358;2022-12-01T12:56:38;71.68;;;29.42;;
22849;SDS011;11591;44.792;10.358;2022-12-01T12:59:10;71.20;;;29.52;;
22849;SDS011;11591;44.792;10.358;2022-12-01T13:01:49;67.50;;;28.90;;
22849;SDS011;11591;44.792;10.358;2022-12-01T13:04:24;62.70;;;28.77;;
22849;SDS011;11591;44.792;10.358;2022-12-01T13:07:04;72.50;;;29.00;;
22849;SDS011;11591;44.792;10.358;2022-12-01T13:09:43;71.93;;;28.95;;
22849;SDS011;11591;44.792;10.358;2022-12-01T13:14:54;65.60;;;28.02;;
22849;SDS011;11591;44.792;10.358;2022-12-01T13:17:26;64.50;;;28.05;;
22849;SDS011;11591;44.792;10.358;2022-12-01T13:20:04;67.32;;;28.35;;
22849;SDS011;11591;44.792;10.358;2022-12-01T13:22:32;67.40;;;29.90;;
22849;SDS011;11591;44.792;10.358;2022-12-01T13:24:59;68.68;;;29.67;;
22849;SDS011;11591;44.792;10.358;2022-12-01T13:27:30;77.43;;;31.70;;
22849;SDS011;11591;44.792;10.358;2022-12-01T13:29:59;76.03;;;32.08;;
22849;SDS011;11591;44.792;10.358;2022-12-01T13:35:01;73.82;;;30.60;;
22849;SDS011;11591;44.792;10.358;2022-12-01T13:37:32;73.15;;;31.77;;
22849;SDS011;11591;44.792;10.358;2022-12-01T13:40:15;70.65;;;30.80;;
22849;SDS011;11591;44.792;10.358;2022-12-01T13:42:54;75.78;;;30.77;;
22849;SDS011;11591;44.792;10.358;2022-12-01T13:45:35;78.13;;;33.05;;
22849;SDS011;11591;44.792;10.358;2022-12-01T13:48:03;81.25;;;30.65;;
22849;SDS011;11591;44.792;10.358;2022-12-01T13:55:57;70.55;;;29.63;;
22849;SDS011;11591;44.792;10.358;2022-12-01T14:03:59;71.43;;;30.42;;
22849;SDS011;11591;44.792;10.358;2022-12-01T14:07:11;74.70;;;30.20;;
22849;SDS011;11591;44.792;10.358;2022-12-01T14:09:45;75.78;;;29.70;;
22849;SDS011;11591;44.792;10.358;2022-12-01T14:12:16;69.60;;;29.90;;
22849;SDS011;11591;44.792;10.358;2022-12-01T14:14:59;76.68;;;30.25;;
22849;SDS011;11591;44.792;10.358;2022-12-01T14:20:02;76.43;;;31.50;;
22849;SDS011;11591;44.792;10.358;2022-12-01T14:25:03;79.10;;;31.55;;
22849;SDS011;11591;44.792;10.358;2022-12-01T14:27:45;74.22;;;30.50;;
22849;SDS011;11591;44.792;10.358;2022-12-01T14:38:45;73.35;;;33.10;;
22849;SDS011;11591;44.792;10.358;2022-12-01T14:41:15;79.82;;;32.47;;
22849;SDS011;11591;44.792;10.358;2022-12-01T14:43:51;81.57;;;32.42;;
22849;SDS011;11591;44.792;10.358;2022-12-01T14:46:28;73.20;;;31.52;;
22849;SDS011;11591;44.792;10.358;2022-12-01T14:48:59;70.38;;;31.95;;
22849;SDS011;11591;44.792;10.358;2022-12-01T14:51:31;70.40;;;32.55;;
22849;SDS011;11591;44.792;10.358;2022-12-01T14:54:00;84.00;;;33.10;;
22849;SDS011;11591;44.792;10.358;2022-12-01T14:56:32;78.20;;;33.90;;
22849;SDS011;11591;44.792;10.358;2022-12-01T14:59:00;74.10;;;32.72;;
22849;SDS011;11591;44.792;10.358;2022-12-01T15:01:38;78.38;;;37.95;;
22849;SDS011;11591;44.792;10.358;2022-12-01T15:04:05;77.32;;;33.75;;
22849;SDS011;11591;44.792;10.358;2022-12-01T15:06:31;73.35;;;33.10;;
22849;SDS011;11591;44.792;10.358;2022-12-01T15:11:34;79.00;;;32.60;;
22849;SDS011;11591;44.792;10.358;2022-12-01T15:14:17;75.30;;;31.45;;
22849;SDS011;11591;44.792;10.358;2022-12-01T15:16:46;80.72;;;32.55;;
22849;SDS011;11591;44.792;10.358;2022-12-01T15:19:31;72.85;;;32.60;;
22849;SDS011;11591;44.792;10.358;2022-12-01T15:22:01;77.97;;;33.72;;
22849;SDS011;11591;44.792;10.358;2022-12-01T15:24:48;72.80;;;33.03;;
22849;SDS011;11591;44.792;10.358;2022-12-01T15:27:22;78.03;;;34.30;;
22849;SDS011;11591;44.792;10.358;2022-12-01T15:29:53;84.07;;;34.88;;
22849;SDS011;11591;44.792;10.358;2022-12-01T15:32:21;85.35;;;34.22;;
22849;SDS011;11591;44.792;10.358;2022-12-01T15:34:49;86.20;;;34.90;;
22849;SDS011;11591;44.792;10.358;2022-12-01T15:37:20;86.25;;;34.22;;
22849;SDS011;11591;44.792;10.358;2022-12-01T15:39:50;85.15;;;34.88;;
22849;SDS011;11591;44.792;10.358;2022-12-01T15:42:26;81.10;;;34.03;;
22849;SDS011;11591;44.792;10.358;2022-12-01T15:47:32;83.68;;;34.17;;
22849;SDS011;11591;44.792;10.358;2022-12-01T15:50:03;83.07;;;33.47;;
22849;SDS011;11591;44.792;10.358;2022-12-01T15:52:30;82.80;;;33.70;;
22849;SDS011;11591;44.792;10.358;2022-12-01T15:54:58;82.55;;;35.58;;
22849;SDS011;11591;44.792;10.358;2022-12-01T15:57:27;75.63;;;32.28;;
22849;SDS011;11591;44.792;10.358;2022-12-01T15:59:55;91.10;;;35.15;;
22849;SDS011;11591;44.792;10.358;2022-12-01T16:07:52;84.88;;;34.05;;
22849;SDS011;11591;44.792;10.358;2022-12-01T16:10:34;85.55;;;34.35;;
22849;SDS011;11591;44.792;10.358;2022-12-01T16:16:26;92.05;;;34.45;;
22849;SDS011;11591;44.792;10.358;2022-12-01T16:21:54;95.88;;;36.35;;
22849;SDS011;11591;44.792;10.358;2022-12-01T16:24:22;91.20;;;34.08;;
22849;SDS011;11591;44.792;10.358;2022-12-01T16:27:06;88.15;;;34.50;;
22849;SDS011;11591;44.792;10.358;2022-12-01T16:29:48;87.53;;;34.65;;
22849;SDS011;11591;44.792;10.358;2022-12-01T16:32:18;88.45;;;35.65;;
22849;SDS011;11591;44.792;10.358;2022-12-01T16:34:48;92.82;;;37.42;;
22849;SDS011;11591;44.792;10.358;2022-12-01T16:37:15;94.45;;;37.22;;
22849;SDS011;11591;44.792;10.358;2022-12-01T16:39:41;91.75;;;36.78;;
22849;SDS011;11591;44.792;10.358;2022-12-01T16:42:11;95.13;;;36.72;;
22849;SDS011;11591;44.792;10.358;2022-12-01T16:44:38;88.32;;;36.10;;
22849;SDS011;11591;44.792;10.358;2022-12-01T16:47:10;92.85;;;36.30;;
22849;SDS011;11591;44.792;10.358;2022-12-01T16:49:47;93.13;;;36.53;;
22849;SDS011;11591;44.792;10.358;2022-12-01T16:52:13;95.05;;;37.28;;
22849;SDS011;11591;44.792;10.358;2022-12-01T16:54:39;88.18;;;36.38;;
22849;SDS011;11591;44.792;10.358;2022-12-01T16:57:05;78.70;;;32.97;;
22849;SDS011;11591;44.792;10.358;2022-12-01T16:59:31;90.22;;;34.40;;
22849;SDS011;11591;44.792;10.358;2022-12-01T17:01:58;87.78;;;34.92;;
22849;SDS011;11591;44.792;10.358;2022-12-01T17:04:24;93.10;;;36.42;;
22849;SDS011;11591;44.792;10.358;2022-12-01T17:06:50;88.60;;;36.72;;